sensor_id;sensor_type;location;lat;lon;timestamp;P1;durP1;ratioP1;P2;durP2;ratioP2
72791;SDS011;60907;53.268;8.764;2024-01-16T00:00:26;5.00;;;1.03;;
72791;SDS011;60907;53.268;8.764;2024-01-16T00:02:52;4.25;;;1.02;;
72791;SDS011;60907;53.268;8.764;2024-01-16T00:05:17;4.73;;;1.00;;
72791;SDS011;60907;53.268;8.764;2024-01-16T00:07:42;1.20;;;0.50;;
72791;SDS011;60907;53.268;8.764;2024-01-16T00:10:07;2.63;;;0.67;;
72791;SDS011;60907;53.268;8.764;2024-01-16T00:12:33;3.07;;;0.60;;
72791;SDS011;60907;53.268;8.764;2024-01-16T00:14:58;1.03;;;0.60;;
72791;SDS011;60907;53.268;8.764;2024-01-16T00:17:23;2.40;;;0.50;;
72791;SDS011;60907;53.268;8.764;2024-01-16T00:19:49;1.30;;;0.43;;
72791;SDS011;60907;53.268;8.764;2024-01-16T00:22:14;1.08;;;0.47;;
72791;SDS011;60907;53.268;8.764;2024-01-16T00:24:39;6.80;;;0.57;;
72791;SDS011;60907;53.268;8.764;2024-01-16T00:27:05;0.70;;;0.30;;
72791;SDS011;60907;53.268;8.764;2024-01-16T00:29:30;3.57;;;0.87;;
72791;SDS011;60907;53.268;8.764;2024-01-16T00:31:55;2.75;;;0.30;;
72791;SDS011;60907;53.268;8.764;2024-01-16T00:34:21;1.43;;;0.83;;
72791;SDS011;60907;53.268;8.764;2024-01-16T00:36:46;2.20;;;0.60;;
72791;SDS011;60907;53.268;8.764;2024-01-16T00:39:11;2.10;;;0.50;;
72791;SDS011;60907;53.268;8.764;2024-01-16T00:41:38;0.95;;;0.45;;
72791;SDS011;60907;53.268;8.764;2024-01-16T00:44:03;1.90;;;0.33;;
72791;SDS011;60907;53.268;8.764;2024-01-16T00:46:29;1.23;;;0.50;;
72791;SDS011;60907;53.268;8.764;2024-01-16T00:48:54;3.50;;;0.60;;
72791;SDS011;60907;53.268;8.764;2024-01-16T00:51:19;2.77;;;0.50;;
72791;SDS011;60907;53.268;8.764;2024-01-16T00:53:45;3.50;;;0.60;;
72791;SDS011;60907;53.268;8.764;2024-01-16T00:56:10;1.10;;;0.47;;
72791;SDS011;60907;53.268;8.764;2024-01-16T00:58:35;1.48;;;0.50;;
72791;SDS011;60907;53.268;8.764;2024-01-16T01:01:01;0.93;;;0.20;;
72791;SDS011;60907;53.268;8.764;2024-01-16T01:03:26;0.50;;;0.23;;
72791;SDS011;60907;53.268;8.764;2024-01-16T01:05:51;1.27;;;0.27;;
72791;SDS011;60907;53.268;8.764;2024-01-16T01:08:17;1.03;;;0.10;;
72791;SDS011;60907;53.268;8.764;2024-01-16T01:10:42;0.80;;;0.30;;
72791;SDS011;60907;53.268;8.764;2024-01-16T01:13:07;1.20;;;0.40;;
72791;SDS011;60907;53.268;8.764;2024-01-16T01:15:32;1.30;;;0.50;;
72791;SDS011;60907;53.268;8.764;2024-01-16T01:17:58;1.17;;;0.43;;
72791;SDS011;60907;53.268;8.764;2024-01-16T01:20:23;1.50;;;0.30;;
72791;SDS011;60907;53.268;8.764;2024-01-16T01:22:48;0.97;;;0.20;;
72791;SDS011;60907;53.268;8.764;2024-01-16T01:25:14;1.80;;;0.30;;
72791;SDS011;60907;53.268;8.764;2024-01-16T01:27:39;0.50;;;0.32;;
72791;SDS011;60907;53.268;8.764;2024-01-16T01:30:09;3.33;;;0.38;;
72791;SDS011;60907;53.268;8.764;2024-01-16T01:32:35;1.75;;;0.30;;
72791;SDS011;60907;53.268;8.764;2024-01-16T01:35:01;0.82;;;0.38;;
72791;SDS011;60907;53.268;8.764;2024-01-16T01:37:26;0.70;;;0.30;;
72791;SDS011;60907;53.268;8.764;2024-01-16T01:39:51;2.97;;;0.40;;
72791;SDS011;60907;53.268;8.764;2024-01-16T01:42:16;1.53;;;0.30;;
72791;SDS011;60907;53.268;8.764;2024-01-16T01:44:42;1.03;;;0.20;;
72791;SDS011;60907;53.268;8.764;2024-01-16T01:47:07;2.63;;;0.50;;
72791;SDS011;60907;53.268;8.764;2024-01-16T01:49:33;2.28;;;0.50;;
72791;SDS011;60907;53.268;8.764;2024-01-16T01:51:58;3.93;;;0.30;;
72791;SDS011;60907;53.268;8.764;2024-01-16T01:54:24;0.30;;;0.10;;
72791;SDS011;60907;53.268;8.764;2024-01-16T01:56:50;1.13;;;0.50;;
72791;SDS011;60907;53.268;8.764;2024-01-16T01:59:17;0.75;;;0.13;;
72791;SDS011;60907;53.268;8.764;2024-01-16T02:01:46;0.20;;;0.10;;
72791;SDS011;60907;53.268;8.764;2024-01-16T02:04:13;1.00;;;0.25;;
72791;SDS011;60907;53.268;8.764;2024-01-16T02:06:39;0.90;;;0.13;;
72791;SDS011;60907;53.268;8.764;2024-01-16T02:09:04;0.98;;;0.10;;
72791;SDS011;60907;53.268;8.764;2024-01-16T02:11:32;0.50;;;0.28;;
72791;SDS011;60907;53.268;8.764;2024-01-16T02:13:57;0.30;;;0.00;;
72791;SDS011;60907;53.268;8.764;2024-01-16T02:16:23;0.23;;;0.10;;
72791;SDS011;60907;53.268;8.764;2024-01-16T02:18:49;0.00;;;0.00;;
72791;SDS011;60907;53.268;8.764;2024-01-16T02:21:16;0.35;;;0.10;;
72791;SDS011;60907;53.268;8.764;2024-01-16T02:23:42;0.38;;;0.10;;
72791;SDS011;60907;53.268;8.764;2024-01-16T02:26:08;1.88;;;0.38;;
72791;SDS011;60907;53.268;8.764;2024-01-16T02:28:33;2.42;;;0.30;;
72791;SDS011;60907;53.268;8.764;2024-01-16T02:30:58;0.20;;;0.10;;
72791;SDS011;60907;53.268;8.764;2024-01-16T02:33:23;0.10;;;0.07;;
72791;SDS011;60907;53.268;8.764;2024-01-16T02:35:49;0.50;;;0.10;;
72791;SDS011;60907;53.268;8.764;2024-01-16T02:38:14;2.87;;;0.23;;
72791;SDS011;60907;53.268;8.764;2024-01-16T02:40:39;1.23;;;0.23;;
72791;SDS011;60907;53.268;8.764;2024-01-16T02:43:05;0.30;;;0.15;;
72791;SDS011;60907;53.268;8.764;2024-01-16T02:45:31;0.90;;;0.30;;
72791;SDS011;60907;53.268;8.764;2024-01-16T02:47:56;0.50;;;0.27;;
72791;SDS011;60907;53.268;8.764;2024-01-16T02:50:21;2.13;;;0.80;;
72791;SDS011;60907;53.268;8.764;2024-01-16T02:52:47;0.47;;;0.17;;
72791;SDS011;60907;53.268;8.764;2024-01-16T02:55:12;1.30;;;0.20;;
72791;SDS011;60907;53.268;8.764;2024-01-16T02:57:38;0.65;;;0.20;;
72791;SDS011;60907;53.268;8.764;2024-01-16T03:00:03;0.27;;;0.27;;
72791;SDS011;60907;53.268;8.764;2024-01-16T03:02:29;0.55;;;0.15;;
72791;SDS011;60907;53.268;8.764;2024-01-16T03:04:55;0.85;;;0.22;;
72791;SDS011;60907;53.268;8.764;2024-01-16T03:07:20;2.43;;;0.40;;
72791;SDS011;60907;53.268;8.764;2024-01-16T03:09:45;0.83;;;0.20;;
72791;SDS011;60907;53.268;8.764;2024-01-16T03:12:10;1.07;;;0.17;;
72791;SDS011;60907;53.268;8.764;2024-01-16T03:14:36;1.27;;;0.30;;
72791;SDS011;60907;53.268;8.764;2024-01-16T03:17:02;4.35;;;0.68;;
72791;SDS011;60907;53.268;8.764;2024-01-16T03:19:27;1.20;;;0.30;;
72791;SDS011;60907;53.268;8.764;2024-01-16T03:21:52;2.23;;;0.40;;
72791;SDS011;60907;53.268;8.764;2024-01-16T03:24:18;2.67;;;0.60;;
72791;SDS011;60907;53.268;8.764;2024-01-16T03:26:45;1.00;;;0.30;;
72791;SDS011;60907;53.268;8.764;2024-01-16T03:29:10;5.30;;;0.73;;
72791;SDS011;60907;53.268;8.764;2024-01-16T03:31:36;1.73;;;0.50;;
72791;SDS011;60907;53.268;8.764;2024-01-16T03:34:01;2.50;;;0.70;;
72791;SDS011;60907;53.268;8.764;2024-01-16T03:36:27;2.88;;;0.98;;
72791;SDS011;60907;53.268;8.764;2024-01-16T03:38:52;1.58;;;0.60;;
72791;SDS011;60907;53.268;8.764;2024-01-16T03:41:17;3.27;;;0.73;;
72791;SDS011;60907;53.268;8.764;2024-01-16T03:43:43;5.83;;;0.80;;
72791;SDS011;60907;53.268;8.764;2024-01-16T03:46:10;4.63;;;1.27;;
72791;SDS011;60907;53.268;8.764;2024-01-16T03:48:35;2.75;;;1.17;;
72791;SDS011;60907;53.268;8.764;2024-01-16T03:51:00;3.50;;;1.50;;
72791;SDS011;60907;53.268;8.764;2024-01-16T03:53:27;5.78;;;1.83;;
72791;SDS011;60907;53.268;8.764;2024-01-16T03:55:52;3.33;;;1.50;;
72791;SDS011;60907;53.268;8.764;2024-01-16T03:58:18;2.43;;;1.20;;
72791;SDS011;60907;53.268;8.764;2024-01-16T04:00:43;4.50;;;1.27;;
72791;SDS011;60907;53.268;8.764;2024-01-16T04:03:09;4.53;;;0.98;;
72791;SDS011;60907;53.268;8.764;2024-01-16T04:05:34;3.37;;;1.10;;
72791;SDS011;60907;53.268;8.764;2024-01-16T04:08:00;5.93;;;1.13;;
72791;SDS011;60907;53.268;8.764;2024-01-16T04:10:25;1.85;;;0.90;;
72791;SDS011;60907;53.268;8.764;2024-01-16T04:12:51;3.73;;;1.27;;
72791;SDS011;60907;53.268;8.764;2024-01-16T04:15:16;2.78;;;0.95;;
72791;SDS011;60907;53.268;8.764;2024-01-16T04:17:41;5.47;;;1.10;;
72791;SDS011;60907;53.268;8.764;2024-01-16T04:20:07;1.23;;;0.70;;
72791;SDS011;60907;53.268;8.764;2024-01-16T04:22:32;1.65;;;0.65;;
72791;SDS011;60907;53.268;8.764;2024-01-16T04:24:58;2.08;;;0.63;;
72791;SDS011;60907;53.268;8.764;2024-01-16T04:27:23;2.65;;;0.68;;
72791;SDS011;60907;53.268;8.764;2024-01-16T04:29:49;2.95;;;0.40;;
72791;SDS011;60907;53.268;8.764;2024-01-16T04:32:14;3.30;;;0.40;;
72791;SDS011;60907;53.268;8.764;2024-01-16T04:34:39;0.50;;;0.30;;
72791;SDS011;60907;53.268;8.764;2024-01-16T04:37:04;1.77;;;0.40;;
72791;SDS011;60907;53.268;8.764;2024-01-16T04:39:30;1.93;;;0.53;;
72791;SDS011;60907;53.268;8.764;2024-01-16T04:41:55;2.47;;;0.70;;
72791;SDS011;60907;53.268;8.764;2024-01-16T04:44:20;1.67;;;0.77;;
72791;SDS011;60907;53.268;8.764;2024-01-16T04:46:45;6.17;;;0.90;;
72791;SDS011;60907;53.268;8.764;2024-01-16T04:49:11;3.50;;;1.30;;
72791;SDS011;60907;53.268;8.764;2024-01-16T04:51:36;5.17;;;1.20;;
72791;SDS011;60907;53.268;8.764;2024-01-16T04:54:01;2.70;;;0.98;;
72791;SDS011;60907;53.268;8.764;2024-01-16T04:56:27;4.80;;;1.23;;
72791;SDS011;60907;53.268;8.764;2024-01-16T04:58:52;5.87;;;1.13;;
72791;SDS011;60907;53.268;8.764;2024-01-16T05:01:17;4.43;;;0.93;;
72791;SDS011;60907;53.268;8.764;2024-01-16T05:03:43;3.10;;;0.90;;
72791;SDS011;60907;53.268;8.764;2024-01-16T05:06:14;2.13;;;0.77;;
72791;SDS011;60907;53.268;8.764;2024-01-16T05:08:40;6.38;;;0.88;;
72791;SDS011;60907;53.268;8.764;2024-01-16T05:11:05;1.52;;;0.70;;
72791;SDS011;60907;53.268;8.764;2024-01-16T05:13:30;3.37;;;1.10;;
72791;SDS011;60907;53.268;8.764;2024-01-16T05:15:56;2.73;;;0.43;;
72791;SDS011;60907;53.268;8.764;2024-01-16T05:18:21;3.03;;;0.57;;
72791;SDS011;60907;53.268;8.764;2024-01-16T05:20:46;6.93;;;0.93;;
72791;SDS011;60907;53.268;8.764;2024-01-16T05:23:12;3.70;;;0.85;;
72791;SDS011;60907;53.268;8.764;2024-01-16T05:25:37;0.97;;;0.30;;
72791;SDS011;60907;53.268;8.764;2024-01-16T05:28:03;2.08;;;0.40;;
72791;SDS011;60907;53.268;8.764;2024-01-16T05:30:28;1.73;;;0.70;;
72791;SDS011;60907;53.268;8.764;2024-01-16T05:32:53;5.10;;;1.17;;
72791;SDS011;60907;53.268;8.764;2024-01-16T05:35:19;4.23;;;0.90;;
72791;SDS011;60907;53.268;8.764;2024-01-16T05:37:44;4.97;;;1.40;;
72791;SDS011;60907;53.268;8.764;2024-01-16T05:40:09;3.20;;;0.87;;
72791;SDS011;60907;53.268;8.764;2024-01-16T05:42:35;4.93;;;1.15;;
72791;SDS011;60907;53.268;8.764;2024-01-16T05:45:00;3.17;;;0.98;;
72791;SDS011;60907;53.268;8.764;2024-01-16T05:47:27;7.03;;;1.23;;
72791;SDS011;60907;53.268;8.764;2024-01-16T05:49:53;2.70;;;0.73;;
72791;SDS011;60907;53.268;8.764;2024-01-16T05:52:19;2.80;;;0.93;;
72791;SDS011;60907;53.268;8.764;2024-01-16T05:54:44;2.77;;;0.50;;
72791;SDS011;60907;53.268;8.764;2024-01-16T05:57:09;2.07;;;0.70;;
72791;SDS011;60907;53.268;8.764;2024-01-16T05:59:34;2.47;;;1.07;;
72791;SDS011;60907;53.268;8.764;2024-01-16T06:02:00;9.83;;;1.13;;
72791;SDS011;60907;53.268;8.764;2024-01-16T06:04:25;5.40;;;0.93;;
72791;SDS011;60907;53.268;8.764;2024-01-16T06:06:50;3.80;;;0.47;;
72791;SDS011;60907;53.268;8.764;2024-01-16T06:09:15;1.37;;;0.80;;
72791;SDS011;60907;53.268;8.764;2024-01-16T06:11:41;1.40;;;0.35;;
72791;SDS011;60907;53.268;8.764;2024-01-16T06:14:07;1.80;;;0.13;;
72791;SDS011;60907;53.268;8.764;2024-01-16T06:16:32;6.32;;;0.45;;
72791;SDS011;60907;53.268;8.764;2024-01-16T06:18:57;4.73;;;0.50;;
72791;SDS011;60907;53.268;8.764;2024-01-16T06:21:23;0.80;;;0.40;;
72791;SDS011;60907;53.268;8.764;2024-01-16T06:23:48;1.25;;;0.45;;
72791;SDS011;60907;53.268;8.764;2024-01-16T06:26:13;1.50;;;0.53;;
72791;SDS011;60907;53.268;8.764;2024-01-16T06:28:39;1.13;;;0.43;;
72791;SDS011;60907;53.268;8.764;2024-01-16T06:31:07;3.05;;;0.90;;
72791;SDS011;60907;53.268;8.764;2024-01-16T06:33:32;2.50;;;0.60;;
72791;SDS011;60907;53.268;8.764;2024-01-16T06:35:57;2.27;;;0.60;;
72791;SDS011;60907;53.268;8.764;2024-01-16T06:38:23;3.27;;;0.90;;
72791;SDS011;60907;53.268;8.764;2024-01-16T06:40:49;2.20;;;0.55;;
72791;SDS011;60907;53.268;8.764;2024-01-16T06:43:14;2.30;;;0.97;;
72791;SDS011;60907;53.268;8.764;2024-01-16T06:45:41;2.20;;;0.80;;
72791;SDS011;60907;53.268;8.764;2024-01-16T06:48:07;3.42;;;1.40;;
72791;SDS011;60907;53.268;8.764;2024-01-16T06:50:32;6.97;;;1.93;;
72791;SDS011;60907;53.268;8.764;2024-01-16T06:52:57;7.50;;;1.70;;
72791;SDS011;60907;53.268;8.764;2024-01-16T06:55:23;9.00;;;2.37;;
72791;SDS011;60907;53.268;8.764;2024-01-16T06:57:48;4.47;;;2.43;;
72791;SDS011;60907;53.268;8.764;2024-01-16T07:00:14;12.57;;;3.30;;
72791;SDS011;60907;53.268;8.764;2024-01-16T07:02:39;5.10;;;1.92;;
72791;SDS011;60907;53.268;8.764;2024-01-16T07:05:08;3.08;;;1.35;;
72791;SDS011;60907;53.268;8.764;2024-01-16T07:07:34;6.63;;;1.95;;
72791;SDS011;60907;53.268;8.764;2024-01-16T07:09:59;2.83;;;1.10;;
72791;SDS011;60907;53.268;8.764;2024-01-16T07:12:24;6.87;;;1.33;;
72791;SDS011;60907;53.268;8.764;2024-01-16T07:14:50;3.10;;;1.20;;
72791;SDS011;60907;53.268;8.764;2024-01-16T07:17:15;5.30;;;0.80;;
72791;SDS011;60907;53.268;8.764;2024-01-16T07:19:41;4.03;;;1.13;;
72791;SDS011;60907;53.268;8.764;2024-01-16T07:22:06;2.60;;;0.47;;
72791;SDS011;60907;53.268;8.764;2024-01-16T07:24:31;2.83;;;0.50;;
72791;SDS011;60907;53.268;8.764;2024-01-16T07:26:56;2.93;;;0.30;;
72791;SDS011;60907;53.268;8.764;2024-01-16T07:29:22;3.30;;;0.40;;
72791;SDS011;60907;53.268;8.764;2024-01-16T07:31:47;2.93;;;1.20;;
72791;SDS011;60907;53.268;8.764;2024-01-16T07:34:12;1.37;;;0.67;;
72791;SDS011;60907;53.268;8.764;2024-01-16T07:36:42;3.60;;;0.40;;
72791;SDS011;60907;53.268;8.764;2024-01-16T07:39:07;1.70;;;0.20;;
72791;SDS011;60907;53.268;8.764;2024-01-16T07:41:33;3.67;;;0.40;;
72791;SDS011;60907;53.268;8.764;2024-01-16T07:43:58;2.53;;;0.27;;
72791;SDS011;60907;53.268;8.764;2024-01-16T07:46:24;2.23;;;0.50;;
72791;SDS011;60907;53.268;8.764;2024-01-16T07:48:49;2.53;;;0.50;;
72791;SDS011;60907;53.268;8.764;2024-01-16T07:51:14;2.77;;;1.50;;
72791;SDS011;60907;53.268;8.764;2024-01-16T07:53:39;1.30;;;0.50;;
72791;SDS011;60907;53.268;8.764;2024-01-16T07:56:05;3.70;;;0.50;;
72791;SDS011;60907;53.268;8.764;2024-01-16T07:58:30;3.90;;;0.73;;
72791;SDS011;60907;53.268;8.764;2024-01-16T08:00:55;0.67;;;0.30;;
72791;SDS011;60907;53.268;8.764;2024-01-16T08:03:20;4.93;;;0.50;;
72791;SDS011;60907;53.268;8.764;2024-01-16T08:05:46;1.03;;;0.27;;
72791;SDS011;60907;53.268;8.764;2024-01-16T08:08:11;1.50;;;0.37;;
72791;SDS011;60907;53.268;8.764;2024-01-16T08:10:37;3.17;;;0.38;;
72791;SDS011;60907;53.268;8.764;2024-01-16T08:13:02;3.03;;;0.70;;
72791;SDS011;60907;53.268;8.764;2024-01-16T08:15:28;4.45;;;0.77;;
72791;SDS011;60907;53.268;8.764;2024-01-16T08:17:53;2.20;;;0.53;;
72791;SDS011;60907;53.268;8.764;2024-01-16T08:20:18;2.63;;;0.70;;
72791;SDS011;60907;53.268;8.764;2024-01-16T08:22:44;6.10;;;0.70;;
72791;SDS011;60907;53.268;8.764;2024-01-16T08:25:09;7.13;;;0.57;;
72791;SDS011;60907;53.268;8.764;2024-01-16T08:27:34;1.93;;;0.50;;
72791;SDS011;60907;53.268;8.764;2024-01-16T08:30:00;1.27;;;0.30;;
72791;SDS011;60907;53.268;8.764;2024-01-16T08:32:26;4.90;;;0.32;;
72791;SDS011;60907;53.268;8.764;2024-01-16T08:34:51;4.57;;;0.90;;
72791;SDS011;60907;53.268;8.764;2024-01-16T08:37:17;2.97;;;0.80;;
72791;SDS011;60907;53.268;8.764;2024-01-16T08:39:42;2.33;;;0.67;;
72791;SDS011;60907;53.268;8.764;2024-01-16T08:42:08;3.22;;;0.52;;
72791;SDS011;60907;53.268;8.764;2024-01-16T08:44:37;2.45;;;0.40;;
72791;SDS011;60907;53.268;8.764;2024-01-16T08:47:02;4.38;;;1.00;;
72791;SDS011;60907;53.268;8.764;2024-01-16T08:49:29;2.90;;;0.75;;
72791;SDS011;60907;53.268;8.764;2024-01-16T08:51:55;7.67;;;1.40;;
72791;SDS011;60907;53.268;8.764;2024-01-16T08:54:20;6.10;;;1.27;;
72791;SDS011;60907;53.268;8.764;2024-01-16T08:56:47;3.92;;;1.88;;
72791;SDS011;60907;53.268;8.764;2024-01-16T08:59:13;4.00;;;1.20;;
72791;SDS011;60907;53.268;8.764;2024-01-16T09:01:38;4.77;;;1.80;;
72791;SDS011;60907;53.268;8.764;2024-01-16T09:04:06;4.95;;;1.63;;
72791;SDS011;60907;53.268;8.764;2024-01-16T09:06:32;5.47;;;1.57;;
72791;SDS011;60907;53.268;8.764;2024-01-16T09:08:57;4.67;;;2.17;;
72791;SDS011;60907;53.268;8.764;2024-01-16T09:11:22;6.60;;;2.13;;
72791;SDS011;60907;53.268;8.764;2024-01-16T09:13:47;5.03;;;2.00;;
72791;SDS011;60907;53.268;8.764;2024-01-16T09:16:13;4.97;;;2.40;;
72791;SDS011;60907;53.268;8.764;2024-01-16T09:18:38;2.97;;;2.17;;
72791;SDS011;60907;53.268;8.764;2024-01-16T09:21:03;2.20;;;1.37;;
72791;SDS011;60907;53.268;8.764;2024-01-16T09:23:29;2.93;;;1.90;;
72791;SDS011;60907;53.268;8.764;2024-01-16T09:25:55;4.82;;;2.00;;
72791;SDS011;60907;53.268;8.764;2024-01-16T09:28:20;5.50;;;1.67;;
72791;SDS011;60907;53.268;8.764;2024-01-16T09:30:45;4.23;;;1.70;;
72791;SDS011;60907;53.268;8.764;2024-01-16T09:33:11;2.50;;;1.27;;
72791;SDS011;60907;53.268;8.764;2024-01-16T09:35:36;4.17;;;1.40;;
72791;SDS011;60907;53.268;8.764;2024-01-16T09:38:02;5.00;;;1.07;;
72791;SDS011;60907;53.268;8.764;2024-01-16T09:40:27;4.68;;;0.85;;
72791;SDS011;60907;53.268;8.764;2024-01-16T09:42:52;2.93;;;0.93;;
72791;SDS011;60907;53.268;8.764;2024-01-16T09:45:20;5.53;;;0.70;;
72791;SDS011;60907;53.268;8.764;2024-01-16T09:47:49;2.90;;;1.05;;
72791;SDS011;60907;53.268;8.764;2024-01-16T09:50:15;5.95;;;0.82;;
72791;SDS011;60907;53.268;8.764;2024-01-16T09:52:41;3.42;;;0.82;;
72791;SDS011;60907;53.268;8.764;2024-01-16T09:55:06;2.03;;;0.70;;
72791;SDS011;60907;53.268;8.764;2024-01-16T09:57:32;1.40;;;0.55;;
72791;SDS011;60907;53.268;8.764;2024-01-16T09:59:57;3.60;;;0.90;;
72791;SDS011;60907;53.268;8.764;2024-01-16T10:02:23;8.05;;;1.10;;
72791;SDS011;60907;53.268;8.764;2024-01-16T10:04:48;4.72;;;1.08;;
72791;SDS011;60907;53.268;8.764;2024-01-16T10:07:14;3.07;;;0.97;;
72791;SDS011;60907;53.268;8.764;2024-01-16T10:09:40;4.32;;;0.75;;
72791;SDS011;60907;53.268;8.764;2024-01-16T10:12:06;1.30;;;0.60;;
72791;SDS011;60907;53.268;8.764;2024-01-16T10:14:32;5.20;;;0.88;;
72791;SDS011;60907;53.268;8.764;2024-01-16T10:16:58;4.72;;;1.10;;
72791;SDS011;60907;53.268;8.764;2024-01-16T10:19:24;1.88;;;0.57;;
72791;SDS011;60907;53.268;8.764;2024-01-16T10:21:50;3.03;;;1.15;;
72791;SDS011;60907;53.268;8.764;2024-01-16T10:24:16;5.53;;;1.20;;
72791;SDS011;60907;53.268;8.764;2024-01-16T10:26:41;2.20;;;1.10;;
72791;SDS011;60907;53.268;8.764;2024-01-16T10:29:06;5.40;;;1.20;;
72791;SDS011;60907;53.268;8.764;2024-01-16T10:31:31;3.43;;;1.03;;
72791;SDS011;60907;53.268;8.764;2024-01-16T10:33:57;7.10;;;1.17;;
72791;SDS011;60907;53.268;8.764;2024-01-16T10:36:23;1.43;;;1.10;;
72791;SDS011;60907;53.268;8.764;2024-01-16T10:38:48;5.88;;;1.63;;
72791;SDS011;60907;53.268;8.764;2024-01-16T10:41:19;2.55;;;1.02;;
72791;SDS011;60907;53.268;8.764;2024-01-16T10:43:50;6.60;;;0.95;;
72791;SDS011;60907;53.268;8.764;2024-01-16T10:46:28;4.15;;;1.15;;
72791;SDS011;60907;53.268;8.764;2024-01-16T10:51:24;2.60;;;1.15;;
72791;SDS011;60907;53.268;8.764;2024-01-16T10:53:51;4.30;;;1.52;;
72791;SDS011;60907;53.268;8.764;2024-01-16T10:56:20;4.15;;;1.52;;
72791;SDS011;60907;53.268;8.764;2024-01-16T10:58:45;2.40;;;1.50;;
72791;SDS011;60907;53.268;8.764;2024-01-16T11:01:15;7.93;;;1.70;;
72791;SDS011;60907;53.268;8.764;2024-01-16T11:03:46;3.92;;;1.00;;
72791;SDS011;60907;53.268;8.764;2024-01-16T11:06:12;2.70;;;1.23;;
72791;SDS011;60907;53.268;8.764;2024-01-16T11:08:39;7.85;;;1.60;;
72791;SDS011;60907;53.268;8.764;2024-01-16T11:11:05;6.15;;;1.58;;
72791;SDS011;60907;53.268;8.764;2024-01-16T11:13:34;4.85;;;1.10;;
72791;SDS011;60907;53.268;8.764;2024-01-16T11:16:03;8.40;;;1.60;;
72791;SDS011;60907;53.268;8.764;2024-01-16T11:18:33;4.88;;;1.90;;
72791;SDS011;60907;53.268;8.764;2024-01-16T11:20:58;5.75;;;1.75;;
72791;SDS011;60907;53.268;8.764;2024-01-16T11:23:24;4.95;;;1.60;;
72791;SDS011;60907;53.268;8.764;2024-01-16T11:25:49;4.45;;;1.00;;
72791;SDS011;60907;53.268;8.764;2024-01-16T11:28:14;4.20;;;1.90;;
72791;SDS011;60907;53.268;8.764;2024-01-16T11:30:41;5.65;;;1.95;;
72791;SDS011;60907;53.268;8.764;2024-01-16T11:33:41;3.58;;;1.52;;
72791;SDS011;60907;53.268;8.764;2024-01-16T11:35:53;3.28;;;1.25;;
72791;SDS011;60907;53.268;8.764;2024-01-16T11:38:18;5.80;;;1.60;;
72791;SDS011;60907;53.268;8.764;2024-01-16T11:40:46;5.80;;;1.80;;
72791;SDS011;60907;53.268;8.764;2024-01-16T11:45:56;5.22;;;2.50;;
72791;SDS011;60907;53.268;8.764;2024-01-16T11:48:23;8.27;;;2.92;;
72791;SDS011;60907;53.268;8.764;2024-01-16T11:50:49;6.05;;;2.95;;
72791;SDS011;60907;53.268;8.764;2024-01-16T11:58:56;6.97;;;3.13;;
72791;SDS011;60907;53.268;8.764;2024-01-16T12:01:22;5.57;;;2.28;;
72791;SDS011;60907;53.268;8.764;2024-01-16T12:04:03;8.10;;;2.55;;
72791;SDS011;60907;53.268;8.764;2024-01-16T12:06:30;11.07;;;3.40;;
72791;SDS011;60907;53.268;8.764;2024-01-16T12:09:10;7.25;;;2.45;;
72791;SDS011;60907;53.268;8.764;2024-01-16T12:11:35;7.97;;;3.03;;
72791;SDS011;60907;53.268;8.764;2024-01-16T12:14:01;4.93;;;2.33;;
72791;SDS011;60907;53.268;8.764;2024-01-16T12:16:26;6.65;;;2.42;;
72791;SDS011;60907;53.268;8.764;2024-01-16T12:19:03;8.13;;;2.88;;
72791;SDS011;60907;53.268;8.764;2024-01-16T12:21:28;9.23;;;3.35;;
72791;SDS011;60907;53.268;8.764;2024-01-16T12:23:54;7.27;;;3.53;;
72791;SDS011;60907;53.268;8.764;2024-01-16T12:26:20;8.13;;;2.90;;
72791;SDS011;60907;53.268;8.764;2024-01-16T12:28:49;7.25;;;3.67;;
72791;SDS011;60907;53.268;8.764;2024-01-16T12:31:17;9.10;;;4.15;;
72791;SDS011;60907;53.268;8.764;2024-01-16T12:33:43;6.97;;;3.70;;
72791;SDS011;60907;53.268;8.764;2024-01-16T12:36:08;8.93;;;3.20;;
72791;SDS011;60907;53.268;8.764;2024-01-16T12:38:35;9.50;;;2.90;;
72791;SDS011;60907;53.268;8.764;2024-01-16T12:41:01;9.27;;;2.83;;
72791;SDS011;60907;53.268;8.764;2024-01-16T12:43:27;7.88;;;3.30;;
72791;SDS011;60907;53.268;8.764;2024-01-16T12:45:55;3.57;;;2.10;;
72791;SDS011;60907;53.268;8.764;2024-01-16T12:48:25;7.63;;;2.22;;
72791;SDS011;60907;53.268;8.764;2024-01-16T12:50:50;7.40;;;2.67;;
72791;SDS011;60907;53.268;8.764;2024-01-16T12:53:16;4.67;;;2.23;;
72791;SDS011;60907;53.268;8.764;2024-01-16T12:55:44;6.93;;;2.53;;
72791;SDS011;60907;53.268;8.764;2024-01-16T13:00:38;6.05;;;2.17;;
72791;SDS011;60907;53.268;8.764;2024-01-16T13:03:04;5.63;;;1.90;;
72791;SDS011;60907;53.268;8.764;2024-01-16T13:05:30;7.47;;;2.15;;
72791;SDS011;60907;53.268;8.764;2024-01-16T13:08:04;4.60;;;2.53;;
72791;SDS011;60907;53.268;8.764;2024-01-16T13:10:29;6.60;;;2.30;;
72791;SDS011;60907;53.268;8.764;2024-01-16T13:13:39;6.13;;;2.05;;
72791;SDS011;60907;53.268;8.764;2024-01-16T13:15:47;5.32;;;1.88;;
72791;SDS011;60907;53.268;8.764;2024-01-16T13:18:19;5.55;;;2.22;;
72791;SDS011;60907;53.268;8.764;2024-01-16T13:20:45;7.72;;;2.83;;
72791;SDS011;60907;53.268;8.764;2024-01-16T13:23:12;4.13;;;2.13;;
72791;SDS011;60907;53.268;8.764;2024-01-16T13:25:38;5.93;;;2.53;;
72791;SDS011;60907;53.268;8.764;2024-01-16T13:28:04;4.93;;;1.80;;
72791;SDS011;60907;53.268;8.764;2024-01-16T13:30:32;5.78;;;2.40;;
72791;SDS011;60907;53.268;8.764;2024-01-16T13:32:57;10.20;;;3.90;;
72791;SDS011;60907;53.268;8.764;2024-01-16T13:35:23;5.13;;;1.53;;
72791;SDS011;60907;53.268;8.764;2024-01-16T13:37:48;8.57;;;2.03;;
72791;SDS011;60907;53.268;8.764;2024-01-16T13:40:15;5.20;;;1.95;;
72791;SDS011;60907;53.268;8.764;2024-01-16T13:42:43;8.13;;;2.42;;
72791;SDS011;60907;53.268;8.764;2024-01-16T13:45:08;9.33;;;2.43;;
72791;SDS011;60907;53.268;8.764;2024-01-16T13:47:34;4.10;;;2.00;;
72791;SDS011;60907;53.268;8.764;2024-01-16T13:50:04;4.13;;;1.88;;
72791;SDS011;60907;53.268;8.764;2024-01-16T13:52:29;5.35;;;2.20;;
72791;SDS011;60907;53.268;8.764;2024-01-16T13:54:54;6.37;;;2.93;;
72791;SDS011;60907;53.268;8.764;2024-01-16T13:57:22;5.40;;;2.58;;
72791;SDS011;60907;53.268;8.764;2024-01-16T13:59:47;3.90;;;1.30;;
72791;SDS011;60907;53.268;8.764;2024-01-16T14:02:12;8.20;;;3.50;;
72791;SDS011;60907;53.268;8.764;2024-01-16T14:04:38;4.50;;;2.13;;
72791;SDS011;60907;53.268;8.764;2024-01-16T14:07:03;7.35;;;2.55;;
72791;SDS011;60907;53.268;8.764;2024-01-16T14:09:32;9.25;;;2.88;;
72791;SDS011;60907;53.268;8.764;2024-01-16T14:11:57;6.93;;;3.33;;
72791;SDS011;60907;53.268;8.764;2024-01-16T14:14:23;4.93;;;1.87;;
72791;SDS011;60907;53.268;8.764;2024-01-16T14:16:48;8.97;;;3.40;;
72791;SDS011;60907;53.268;8.764;2024-01-16T14:19:14;7.22;;;3.03;;
72791;SDS011;60907;53.268;8.764;2024-01-16T14:21:39;9.00;;;3.57;;
72791;SDS011;60907;53.268;8.764;2024-01-16T14:24:05;3.23;;;1.83;;
72791;SDS011;60907;53.268;8.764;2024-01-16T14:26:30;5.47;;;2.67;;
72791;SDS011;60907;53.268;8.764;2024-01-16T14:28:55;6.37;;;3.33;;
72791;SDS011;60907;53.268;8.764;2024-01-16T14:31:20;5.03;;;2.33;;
72791;SDS011;60907;53.268;8.764;2024-01-16T14:33:46;7.10;;;2.97;;
72791;SDS011;60907;53.268;8.764;2024-01-16T14:36:11;5.93;;;2.83;;
72791;SDS011;60907;53.268;8.764;2024-01-16T14:38:36;4.83;;;2.60;;
72791;SDS011;60907;53.268;8.764;2024-01-16T14:41:01;5.27;;;2.37;;
72791;SDS011;60907;53.268;8.764;2024-01-16T14:43:28;7.75;;;2.92;;
72791;SDS011;60907;53.268;8.764;2024-01-16T14:45:54;7.93;;;3.15;;
72791;SDS011;60907;53.268;8.764;2024-01-16T14:48:19;8.20;;;2.93;;
72791;SDS011;60907;53.268;8.764;2024-01-16T14:50:45;5.28;;;3.00;;
72791;SDS011;60907;53.268;8.764;2024-01-16T14:53:12;6.05;;;2.35;;